Terminal Aerodrome Forecast
Issued by NWS Louisville, KY

Home | Current Version | Previous Version | Text Only | Print | Product List | Glossary On
Versions: 1 2 3 4 5 6 7 8 9 10 11 12 13 14 15 16 17 18
000
FTUS43 KLMK 242300
TAFLEX
TAF
KLEX 242326Z 2500/2524 22006KT P6SM FEW030 SCT250
     FM251200 19008KT P6SM SCT010 BKN070
     FM252000 18008KT 6SM BR VCSH SCT020 BKN040
     FM252200 18007KT 3SM -SHRA BR BKN012=

USA.gov is the U.S. government's official web portal to all federal, state and local government web resources and services.